Coffman Cove, AK

7:02 PM AKST op 26 februari 2015 (GMT -0900)
Ketchikan International | Change Station
CLOSE
Current Station
Luchthaven
Location: Ketchikan,
Geometrische hoogte: 95 ft
Nabije weerstations

Hoogte 95 ft 55.36 °N, 131.71 °W | Updated 9 minutes ago

Clear
Helder
38 °F
Voelt als 34 °F
N
5
Wind Variabel Wind van NW

Vandaag
Hoog -- | Laag -- °F
--% Kans op neerslag
Gisteren
Hoog -- | Laag -- °F
Precip. -- inches
6:44 AM 5:15 PM
Wassende maan, 65% visible
Druk 30.16 inches
Zicht 10.0 mijlen
Wolken Helder
Gevoelstemperatuur 34 °F
Dauwpunt 30 °F
Vochtigheid 73%
Neerslag 0.04 inches
Dikte sneeuw Niet beschikbaar.
UV 0 van de 12
Pollen Niet beschikbaar.
Luchtkwaliteit Niet beschikbaar.
Flu Activity Niet beschikbaar.
METAR PAKT 270353Z 32004KT 10SM CLR 03/M01 A3015 RMK AO2 SLP212 T00331011

More Conditions Fewer Conditions

Druk 30.16 inches
Zicht 10.0 mijlen
Wolken Helder
Gevoelstemperatuur 34 °F
Dauwpunt 30 °F
Vochtigheid 73%
Neerslag 0.04 inches
Dikte sneeuw Niet beschikbaar.
UV 0 van de 12
Pollen Niet beschikbaar.
Luchtkwaliteit Niet beschikbaar.
Flu Activity Niet beschikbaar.
METAR PAKT 270353Z 32004KT 10SM CLR 03/M01 A3015 RMK AO2 SLP212 T00331011

More Conditions Fewer Conditions

10-Day Weather Forecast

Almanac

Astronomie

Feb. 26, 2015 Opkomst Ondergang
Werkelijke tijd
Burgerlijke schemering
Nautische schemering
Astronomische schemering
Maan
Golflengte van het zichtbare licht
Daglengte
Tomorrow will be .
, % of the Moon is Illuminated

Extremen vandaag

State Highs State Lows

Community

WunderPhotos

Upload Photos

1,800,609 foto’s ge-upload!

WunderBlogs® & News

Nearby

Luchtkwaliteit

  Luchtkwaliteit LK-index Verontreinigende stof
Not available.

Dikte sneeuw

Station Depth Geometrische hoogte

Aardbevingen

Stad Distance Mag. Time & Date
Minimum magnitude displayed is 2.5.

Watertemperatuur langs de kust

Plaats Temperatuur

Nabije weerstations